CW8081 Thessaloniki GR current weather conditions

sailwx.info

Wind from 325 at 5 knots gusting 11

Air temperature 15.0° C
Dewpoint 7.5° C

Last reported at 2015-Feb-01 13:41 UTC.
Time now 2015-Feb-01 14:51 UTC

Location: N 40°34' E 022°58'.
View on Google Maps.

See reports from other nearby stations

  
Tides and Currents Weather Stations Pressure Air Temp Water Temp Dewpoint Dewpoint Depression Visibility Wind Speed Wind Dir Waves Ship Positions
date/time (UTC)wind fromknots sea level pressurealtimeterstation pressurevisibilityair tempwater tempwave heightnotes
2015-Feb-01 13:41 325 5 gusting 11 15.0
2015-Feb-01 13:31 316 5 gusting 13 15.0
2015-Feb-01 13:11 314 9 gusting 17 16.1
2015-Feb-01 13:01 271 4 gusting 13 16.7
2015-Feb-01 12:41 219 8 gusting 19 16.7
2015-Feb-01 12:31 224 8 gusting 15 16.7
2015-Feb-01 12:11 188 8 gusting 15 16.1
2015-Feb-01 12:01 188 9 gusting 20 16.7
2015-Feb-01 11:41 190 5 gusting 8 17.2
2015-Feb-01 11:31 202 4 gusting 8 17.2
2015-Feb-01 11:11 201 4 gusting 6 17.2
2015-Feb-01 11:01 190 0 gusting 6 16.7
2015-Feb-01 10:41 204 2 gusting 6 16.7
2015-Feb-01 10:31 163 16.1
2015-Feb-01 10:11 132 3 gusting 7 14.4
2015-Feb-01 10:01 144 6 gusting 10 13.3
2015-Feb-01 09:41 141 1 gusting 6 12.8
2015-Feb-01 09:31 109 12.2
2015-Feb-01 09:11 129 1 gusting 12 11.1
2015-Feb-01 09:01 149 5 gusting 11 11.7
2015-Feb-01 08:41 190 1 gusting 7 10.6
2015-Feb-01 08:31 073 10.0
2015-Feb-01 08:11 030 1 gusting 7 8.9
2015-Feb-01 08:01 304 1 gusting 5 8.3
2015-Feb-01 07:11 302 7.8
2015-Feb-01 07:01 310 0 gusting 2 7.8
2015-Feb-01 06:41 019 0 gusting 7 7.8
2015-Feb-01 06:31 343 6 gusting 8 7.8
2015-Feb-01 06:11 325 5 gusting 8 7.8
2015-Feb-01 06:01 129 7.8
2015-Feb-01 05:41 128 7.2
2015-Feb-01 05:31 128 7.2
2015-Feb-01 05:11 128 0 gusting 2 7.2
2015-Feb-01 05:01 128 7.2
2015-Feb-01 04:41 145 2 gusting 6 7.8
2015-Feb-01 04:31 140 0 gusting 7 7.8
2015-Feb-01 04:11 111 2 gusting 7 7.8
2015-Feb-01 04:01 136 4 gusting 8 7.8
2015-Feb-01 03:41 064 0 gusting 6 7.8
2015-Feb-01 03:31 096 4 gusting 10 7.8
2015-Feb-01 03:11 273 3 gusting 7 7.8
2015-Feb-01 03:01 312 0 gusting 7 7.8
2015-Feb-01 02:41 269 5 gusting 8 7.8
2015-Feb-01 02:31 113 7.8
2015-Feb-01 02:11 112 7.8
2015-Feb-01 02:01 155 7.8
2015-Feb-01 01:41 136 7.8
2015-Feb-01 01:31 144 7.8
2015-Feb-01 01:11 144 7.8
2015-Feb-01 01:01 144 7.8
2015-Feb-01 00:41 144 7.8
2015-Feb-01 00:31 144 7.8
2015-Feb-01 00:11 144 7.8
2015-Feb-01 00:01 144 7.8
2015-Jan-31 23:41 144 7.8
2015-Jan-31 23:31 144 2 gusting 5 7.8
2015-Jan-31 23:11 170 1 gusting 5 7.8
2015-Jan-31 23:01 263 7.8
2015-Jan-31 22:41 263 7.8
2015-Jan-31 22:31 263 7.8
2015-Jan-31 22:11 263 7.8
2015-Jan-31 22:01 315 0 gusting 6 7.8
2015-Jan-31 21:41 257 7.8
2015-Jan-31 21:31 267 8.3
2015-Jan-31 21:11 219 8.3
2015-Jan-31 21:01 234 8.3
2015-Jan-31 20:41 277 8.3
2015-Jan-31 20:31 277 8.3
2015-Jan-31 20:11 277 8.3
2015-Jan-31 20:01 277 8.3
2015-Jan-31 19:41 327 8.9
2015-Jan-31 19:31 349 8.9
2015-Jan-31 19:11 132 2 gusting 4 8.9
2015-Jan-31 19:01 078 8.9
2015-Jan-31 18:41 078 8.9
2015-Jan-31 18:31 075 1 gusting 5 8.9
2015-Jan-31 18:11 152 1 gusting 5 8.9
2015-Jan-31 18:01 210 7 gusting 10 8.9
2015-Jan-31 17:41 009 8.9
2015-Jan-31 17:31 009 8.9
2015-Jan-31 17:11 009 8.9
2015-Jan-31 17:01 009 8.9
2015-Jan-31 16:41 009 1 gusting 5 8.9
2015-Jan-31 16:31 009 2 gusting 5 8.9
2015-Jan-31 16:11 005 3 gusting 6 8.9
2015-Jan-31 16:01 312 1 gusting 4 8.9
2015-Jan-31 15:41 311 2 gusting 6 8.9
2015-Jan-31 15:31 340 3 gusting 6 8.9
2015-Jan-31 15:11 322 3 gusting 5 8.9
2015-Jan-31 15:01 8.9
2015-Jan-31 14:41 347 5 gusting 7 9.4
2015-Jan-31 14:31 350 4 gusting 7 9.4
2015-Jan-31 14:11 350 3 gusting 6 10.0
2015-Jan-31 14:01 355 3 gusting 5 10.0
2015-Jan-31 13:41 018 1 gusting 2 10.6
2015-Jan-31 13:31 018 10.6
2015-Jan-31 13:11 018 11.1
2015-Jan-31 13:01 018 11.1
2015-Jan-31 12:41 015 2 gusting 5 11.1
2015-Jan-31 12:31 11.1
2015-Jan-31 12:11 11.7
2015-Jan-31 12:01 030 1 gusting 5 12.2
2015-Jan-31 11:41 122 12.8
2015-Jan-31 11:31 122 12.8
2015-Jan-31 11:11 122 12.8
2015-Jan-31 11:01 122 12.8
2015-Jan-31 10:41 122 12.8
2015-Jan-31 10:31 122 12.8
2015-Jan-31 10:11 047 12.8
2015-Jan-31 10:01 047 12.2
2015-Jan-31 09:41 047 12.2
2015-Jan-31 09:31 046 12.2
2015-Jan-31 09:11 020 11.7
2015-Jan-31 09:01 020 11.7
2015-Jan-31 08:41 019 11.1
2015-Jan-31 08:31 019 2 gusting 5 11.1
2015-Jan-31 08:11 053 5 gusting 6 10.6
2015-Jan-31 08:01 055 1 gusting 5 10.6
2015-Jan-31 07:41 035 1 gusting 2 10.6
2015-Jan-31 07:31 034 10.6
2015-Jan-31 07:11 034 10.6
2015-Jan-31 07:01 034 10.6
2015-Jan-31 06:41 034 10.6
2015-Jan-31 06:31 038 10.6
2015-Jan-31 06:11 034 10.6
2015-Jan-31 06:01 034 1 gusting 6 10.6
2015-Jan-31 05:41 345 6 gusting 10 11.1
2015-Jan-31 05:31 339 5 gusting 12 11.7
2015-Jan-31 05:11 144 0 gusting 6 11.7
2015-Jan-31 05:01 170 2 gusting 10 11.7
2015-Jan-31 04:41 123 3 gusting 10 11.7
2015-Jan-31 04:31 167 2 gusting 6 11.1
2015-Jan-31 04:11 139 0 gusting 5 11.1
2015-Jan-31 04:01 136 1 gusting 12 11.1
2015-Jan-31 03:41 138 4 gusting 8 11.1
2015-Jan-31 03:31 147 6 gusting 11 11.7
2015-Jan-31 03:11 138 5 gusting 11 11.1
2015-Jan-31 03:01 146 2 gusting 11 11.1
2015-Jan-31 02:41 140 4 gusting 8 11.1
2015-Jan-31 02:31 137 11.1
2015-Jan-31 02:11 155 1 gusting 6 11.1
2015-Jan-31 02:01 144 0 gusting 19 11.1
2015-Jan-31 01:41 151 11 gusting 27 11.7
2015-Jan-31 01:31 167 12 gusting 22 12.2
2015-Jan-31 01:11 138 5 gusting 13 12.2
2015-Jan-31 01:01 146 7 gusting 22 12.8
2015-Jan-31 00:41 204 10 gusting 19 13.9
2015-Jan-31 00:31 168 7 gusting 24 14.4
2015-Jan-31 00:11 159 8 gusting 19 14.4
2015-Jan-31 00:01 173 12 gusting 26 15.0
2015-Jan-30 23:41 167 12 gusting 22 14.4
2015-Jan-30 23:31 139 10 gusting 20 14.4
2015-Jan-30 23:11 099 8 gusting 22 14.4
2015-Jan-30 23:01 132 8 gusting 22 14.4
2015-Jan-30 22:41 116 13 gusting 30 14.4
2015-Jan-30 22:31 148 12 gusting 22 14.4
2015-Jan-30 22:11 129 10 gusting 21 13.9
2015-Jan-30 22:01 113 12 gusting 22 13.9
2015-Jan-30 21:41 149 6 gusting 18 13.9
2015-Jan-30 21:31 123 6 gusting 25 13.9
2015-Jan-30 21:11 147 7 gusting 17 13.9
2015-Jan-30 21:01 178 7 gusting 24 13.9
2015-Jan-30 20:41 148 10 gusting 19 13.9
2015-Jan-30 20:31 118 13 gusting 22 13.9
2015-Jan-30 20:11 142 12 gusting 20 13.9
2015-Jan-30 20:01 081 10 gusting 26 13.9
2015-Jan-30 19:41 143 8 gusting 18 13.3
2015-Jan-30 19:31 155 8 gusting 15 13.3
2015-Jan-30 19:11 137 10 gusting 19 13.9
2015-Jan-30 19:01 148 7 gusting 17 13.3
2015-Jan-30 18:41 150 6 gusting 11 13.9
2015-Jan-30 18:31 136 6 gusting 18 13.9
2015-Jan-30 18:11 150 9 gusting 18 13.9
2015-Jan-30 18:01 163 7 gusting 17 13.9
2015-Jan-30 17:41 155 11 gusting 19 13.9
2015-Jan-30 17:31 134 6 gusting 19 13.9
2015-Jan-30 17:11 140 7 gusting 13 13.9
2015-Jan-30 17:01 130 6 gusting 21 13.9
2015-Jan-30 16:41 138 9 gusting 19 13.9
2015-Jan-30 16:31 157 6 gusting 13 13.3
2015-Jan-30 16:11 145 5 gusting 11 12.8
2015-Jan-30 16:01 122 3 gusting 10 12.8
2015-Jan-30 15:41 142 4 gusting 12 12.8
2015-Jan-30 15:31 134 6 gusting 13 12.8
2015-Jan-30 15:11 098 2 gusting 6 12.8
2015-Jan-30 15:01 141 1 gusting 10 12.8
2015-Jan-30 14:41 128 4 gusting 10 12.8
2015-Jan-30 14:31 120 7 gusting 17 12.8
2015-Jan-30 14:11 132 5 gusting 13 12.8
2015-Jan-30 14:01 138 5 gusting 19 12.8